sensor_id;sensor_type;location;lat;lon;timestamp;pressure;altitude;pressure_sealevel;temperature;humidity
73085;BME280;62974;49.460;10.892;2023-11-19T00:00:11;97750.19;;;5.47;100.00
73085;BME280;62974;49.460;10.892;2023-11-19T00:02:40;97744.75;;;5.16;100.00
73085;BME280;62974;49.460;10.892;2023-11-19T00:05:09;97740.88;;;5.43;100.00
73085;BME280;62974;49.460;10.892;2023-11-19T00:07:39;97732.38;;;5.55;100.00
73085;BME280;62974;49.460;10.892;2023-11-19T00:10:08;97726.91;;;5.49;100.00
73085;BME280;62974;49.460;10.892;2023-11-19T00:12:37;97726.69;;;5.58;100.00
73085;BME280;62974;49.460;10.892;2023-11-19T00:15:08;97728.69;;;5.64;100.00
73085;BME280;62974;49.460;10.892;2023-11-19T00:17:38;97730.19;;;5.59;100.00
73085;BME280;62974;49.460;10.892;2023-11-19T00:20:08;97725.88;;;5.50;100.00
73085;BME280;62974;49.460;10.892;2023-11-19T00:22:35;97730.34;;;5.57;100.00
73085;BME280;62974;49.460;10.892;2023-11-19T00:25:15;97728.53;;;5.58;100.00
73085;BME280;62974;49.460;10.892;2023-11-19T00:27:42;97724.22;;;5.57;100.00
73085;BME280;62974;49.460;10.892;2023-11-19T00:30:13;97721.19;;;5.68;100.00
73085;BME280;62974;49.460;10.892;2023-11-19T00:32:41;97718.44;;;5.45;100.00
73085;BME280;62974;49.460;10.892;2023-11-19T00:35:09;97709.03;;;5.57;100.00
73085;BME280;62974;49.460;10.892;2023-11-19T00:37:37;97706.94;;;5.45;100.00
73085;BME280;62974;49.460;10.892;2023-11-19T00:40:06;97695.53;;;5.67;100.00
73085;BME280;62974;49.460;10.892;2023-11-19T00:42:36;97694.22;;;5.63;100.00
73085;BME280;62974;49.460;10.892;2023-11-19T00:45:05;97692.25;;;5.57;100.00
73085;BME280;62974;49.460;10.892;2023-11-19T00:47:36;97689.06;;;5.61;100.00
73085;BME280;62974;49.460;10.892;2023-11-19T00:50:04;97684.25;;;5.65;100.00
73085;BME280;62974;49.460;10.892;2023-11-19T00:52:32;97684.06;;;5.66;100.00
73085;BME280;62974;49.460;10.892;2023-11-19T00:55:00;97673.28;;;5.60;100.00
73085;BME280;62974;49.460;10.892;2023-11-19T00:57:27;97671.22;;;5.70;100.00
73085;BME280;62974;49.460;10.892;2023-11-19T00:59:55;97668.53;;;5.70;100.00
73085;BME280;62974;49.460;10.892;2023-11-19T01:02:22;97677.28;;;5.56;100.00
73085;BME280;62974;49.460;10.892;2023-11-19T01:04:51;97665.91;;;5.62;100.00
73085;BME280;62974;49.460;10.892;2023-11-19T01:07:20;97669.44;;;5.54;100.00
73085;BME280;62974;49.460;10.892;2023-11-19T01:09:48;97661.09;;;5.57;100.00
73085;BME280;62974;49.460;10.892;2023-11-19T01:12:16;97665.63;;;5.57;100.00
73085;BME280;62974;49.460;10.892;2023-11-19T01:14:43;97671.28;;;5.54;100.00
73085;BME280;62974;49.460;10.892;2023-11-19T01:17:11;97667.22;;;5.66;100.00
73085;BME280;62974;49.460;10.892;2023-11-19T01:19:38;97665.44;;;5.58;100.00
73085;BME280;62974;49.460;10.892;2023-11-19T01:22:07;97669.78;;;5.51;100.00
73085;BME280;62974;49.460;10.892;2023-11-19T01:24:35;97666.13;;;5.60;100.00
73085;BME280;62974;49.460;10.892;2023-11-19T01:27:03;97662.22;;;5.71;100.00
73085;BME280;62974;49.460;10.892;2023-11-19T01:29:30;97671.22;;;5.70;100.00
73085;BME280;62974;49.460;10.892;2023-11-19T01:31:58;97665.44;;;5.58;100.00
73085;BME280;62974;49.460;10.892;2023-11-19T01:34:25;97659.88;;;5.76;100.00
73085;BME280;62974;49.460;10.892;2023-11-19T01:36:53;97660.75;;;5.68;100.00
73085;BME280;62974;49.460;10.892;2023-11-19T01:39:22;97648.38;;;5.37;100.00
73085;BME280;62974;49.460;10.892;2023-11-19T01:41:50;97646.31;;;5.55;100.00
73085;BME280;62974;49.460;10.892;2023-11-19T01:44:18;97640.75;;;5.73;100.00
73085;BME280;62974;49.460;10.892;2023-11-19T01:46:46;97630.09;;;5.73;100.00
73085;BME280;62974;49.460;10.892;2023-11-19T01:49:15;97613.59;;;5.38;100.00
73085;BME280;62974;49.460;10.892;2023-11-19T01:51:44;97603.53;;;5.56;100.00
73085;BME280;62974;49.460;10.892;2023-11-19T01:54:12;97598.09;;;5.42;100.00
73085;BME280;62974;49.460;10.892;2023-11-19T01:56:43;97580.69;;;5.62;100.00
73085;BME280;62974;49.460;10.892;2023-11-19T01:59:12;97589.25;;;5.80;100.00
73085;BME280;62974;49.460;10.892;2023-11-19T02:01:41;97586.22;;;5.83;100.00
73085;BME280;62974;49.460;10.892;2023-11-19T02:04:09;97595.09;;;5.76;100.00
73085;BME280;62974;49.460;10.892;2023-11-19T02:06:40;97587.28;;;5.74;100.00
73085;BME280;62974;49.460;10.892;2023-11-19T02:09:08;97584.38;;;5.61;100.00
73085;BME280;62974;49.460;10.892;2023-11-19T02:11:36;97592.81;;;5.73;100.00
73085;BME280;62974;49.460;10.892;2023-11-19T02:14:05;97595.03;;;5.61;100.00
73085;BME280;62974;49.460;10.892;2023-11-19T02:16:33;97596.56;;;5.78;100.00
73085;BME280;62974;49.460;10.892;2023-11-19T02:19:00;97590.69;;;5.60;100.00
73085;BME280;62974;49.460;10.892;2023-11-19T02:21:28;97589.41;;;5.79;100.00
73085;BME280;62974;49.460;10.892;2023-11-19T02:23:56;97591.13;;;5.72;100.00
73085;BME280;62974;49.460;10.892;2023-11-19T02:26:39;97588.25;;;5.81;100.00
73085;BME280;62974;49.460;10.892;2023-11-19T02:29:09;97580.13;;;5.75;100.00
73085;BME280;62974;49.460;10.892;2023-11-19T02:31:36;97583.97;;;5.72;100.00
73085;BME280;62974;49.460;10.892;2023-11-19T02:34:04;97582.75;;;5.83;100.00
73085;BME280;62974;49.460;10.892;2023-11-19T02:36:32;97577.06;;;5.86;100.00
73085;BME280;62974;49.460;10.892;2023-11-19T02:39:00;97585.75;;;5.80;100.00
73085;BME280;62974;49.460;10.892;2023-11-19T02:41:28;97589.41;;;5.79;100.00
73085;BME280;62974;49.460;10.892;2023-11-19T02:43:55;97598.19;;;5.95;100.00
73085;BME280;62974;49.460;10.892;2023-11-19T02:46:24;97595.69;;;5.94;100.00
73085;BME280;62974;49.460;10.892;2023-11-19T02:48:52;97592.69;;;5.97;100.00
73085;BME280;62974;49.460;10.892;2023-11-19T02:51:20;97576.50;;;5.98;100.00
73085;BME280;62974;49.460;10.892;2023-11-19T02:53:48;97569.66;;;6.04;100.00
73085;BME280;62974;49.460;10.892;2023-11-19T02:56:15;97569.44;;;6.05;100.00
73085;BME280;62974;49.460;10.892;2023-11-19T02:58:46;97568.44;;;6.06;100.00
73085;BME280;62974;49.460;10.892;2023-11-19T03:01:21;97566.00;;;5.66;100.00
73085;BME280;62974;49.460;10.892;2023-11-19T03:03:57;97556.28;;;5.81;100.00
73085;BME280;62974;49.460;10.892;2023-11-19T03:06:26;97563.78;;;5.78;100.00
73085;BME280;62974;49.460;10.892;2023-11-19T03:09:20;97560.72;;;5.97;100.00
73085;BME280;62974;49.460;10.892;2023-11-19T03:11:56;97563.94;;;6.07;100.00
73085;BME280;62974;49.460;10.892;2023-11-19T03:14:24;97559.56;;;5.91;100.00
73085;BME280;62974;49.460;10.892;2023-11-19T03:16:52;97563.72;;;5.86;100.00
73085;BME280;62974;49.460;10.892;2023-11-19T03:19:21;97551.81;;;5.74;100.00
73085;BME280;62974;49.460;10.892;2023-11-19T03:21:51;97542.59;;;5.84;100.00
73085;BME280;62974;49.460;10.892;2023-11-19T03:24:20;97532.69;;;6.01;100.00
73085;BME280;62974;49.460;10.892;2023-11-19T03:26:48;97553.81;;;6.02;100.00
73085;BME280;62974;49.460;10.892;2023-11-19T03:29:16;97552.97;;;6.02;100.00
73085;BME280;62974;49.460;10.892;2023-11-19T03:31:44;97520.72;;;5.97;100.00
73085;BME280;62974;49.460;10.892;2023-11-19T03:34:12;97504.75;;;5.97;100.00
73085;BME280;62974;49.460;10.892;2023-11-19T03:36:41;97497.38;;;5.99;100.00
73085;BME280;62974;49.460;10.892;2023-11-19T03:39:08;97468.69;;;5.78;100.00
73085;BME280;62974;49.460;10.892;2023-11-19T03:41:36;97463.59;;;5.46;100.00
73085;BME280;62974;49.460;10.892;2023-11-19T03:44:06;97437.75;;;5.77;100.00
73085;BME280;62974;49.460;10.892;2023-11-19T03:46:34;97421.88;;;5.84;100.00
73085;BME280;62974;49.460;10.892;2023-11-19T03:49:02;97410.06;;;5.63;100.00
73085;BME280;62974;49.460;10.892;2023-11-19T03:51:30;97417.69;;;5.89;100.00
73085;BME280;62974;49.460;10.892;2023-11-19T03:54:00;97420.38;;;5.44;100.00
73085;BME280;62974;49.460;10.892;2023-11-19T03:56:27;97432.38;;;5.40;100.00
73085;BME280;62974;49.460;10.892;2023-11-19T03:58:57;97425.31;;;5.69;100.00
73085;BME280;62974;49.460;10.892;2023-11-19T04:01:25;97433.91;;;5.80;100.00
73085;BME280;62974;49.460;10.892;2023-11-19T04:03:52;97428.56;;;5.80;100.00
73085;BME280;62974;49.460;10.892;2023-11-19T04:06:22;97432.19;;;5.87;100.00
73085;BME280;62974;49.460;10.892;2023-11-19T04:08:49;97452.16;;;5.91;100.00
73085;BME280;62974;49.460;10.892;2023-11-19T04:11:18;97464.00;;;5.88;100.00
73085;BME280;62974;49.460;10.892;2023-11-19T04:13:46;97464.19;;;6.01;100.00
73085;BME280;62974;49.460;10.892;2023-11-19T04:16:14;97457.56;;;5.75;100.00
73085;BME280;62974;49.460;10.892;2023-11-19T04:18:42;97462.38;;;5.79;100.00
73085;BME280;62974;49.460;10.892;2023-11-19T04:21:09;97453.44;;;5.72;100.00
73085;BME280;62974;49.460;10.892;2023-11-19T04:23:37;97459.25;;;5.98;100.00
73085;BME280;62974;49.460;10.892;2023-11-19T04:26:05;97460.25;;;5.97;100.00
73085;BME280;62974;49.460;10.892;2023-11-19T04:28:37;97457.03;;;5.79;100.00
73085;BME280;62974;49.460;10.892;2023-11-19T04:31:05;97458.81;;;6.09;100.00
73085;BME280;62974;49.460;10.892;2023-11-19T04:33:33;97454.75;;;6.13;100.00
73085;BME280;62974;49.460;10.892;2023-11-19T04:36:00;97452.94;;;6.14;100.00
73085;BME280;62974;49.460;10.892;2023-11-19T04:38:28;97453.22;;;6.19;100.00
73085;BME280;62974;49.460;10.892;2023-11-19T04:40:56;97454.88;;;6.20;100.00
73085;BME280;62974;49.460;10.892;2023-11-19T04:43:24;97454.59;;;6.30;100.00
73085;BME280;62974;49.460;10.892;2023-11-19T04:45:53;97452.16;;;6.28;100.00
73085;BME280;62974;49.460;10.892;2023-11-19T04:48:21;97453.22;;;6.34;100.00
73085;BME280;62974;49.460;10.892;2023-11-19T04:50:49;97457.94;;;6.32;100.00
73085;BME280;62974;49.460;10.892;2023-11-19T04:53:17;97445.22;;;6.34;100.00
73085;BME280;62974;49.460;10.892;2023-11-19T04:55:45;97452.53;;;6.40;100.00
73085;BME280;62974;49.460;10.892;2023-11-19T04:58:12;97448.72;;;6.49;100.00
73085;BME280;62974;49.460;10.892;2023-11-19T05:00:40;97447.72;;;6.50;100.00
73085;BME280;62974;49.460;10.892;2023-11-19T05:03:09;97444.22;;;6.49;100.00
73085;BME280;62974;49.460;10.892;2023-11-19T05:05:37;97434.84;;;6.53;100.00
73085;BME280;62974;49.460;10.892;2023-11-19T05:08:04;97449.84;;;6.54;100.00
73085;BME280;62974;49.460;10.892;2023-11-19T05:10:32;97444.22;;;6.49;100.00
73085;BME280;62974;49.460;10.892;2023-11-19T05:13:00;97440.00;;;6.55;100.00
73085;BME280;62974;49.460;10.892;2023-11-19T05:15:27;97432.47;;;6.58;100.00
73085;BME280;62974;49.460;10.892;2023-11-19T05:17:55;97434.03;;;6.53;100.00
73085;BME280;62974;49.460;10.892;2023-11-19T05:20:24;97427.22;;;6.65;100.00
73085;BME280;62974;49.460;10.892;2023-11-19T05:22:54;97429.78;;;6.58;100.00
73085;BME280;62974;49.460;10.892;2023-11-19T05:25:21;97420.38;;;6.77;100.00
73085;BME280;62974;49.460;10.892;2023-11-19T05:27:49;97414.59;;;6.74;100.00
73085;BME280;62974;49.460;10.892;2023-11-19T05:30:16;97417.53;;;6.79;100.00
73085;BME280;62974;49.460;10.892;2023-11-19T05:32:44;97409.44;;;6.87;100.00
73085;BME280;62974;49.460;10.892;2023-11-19T05:35:12;97406.81;;;6.72;100.00
73085;BME280;62974;49.460;10.892;2023-11-19T05:37:41;97405.03;;;6.79;100.00
73085;BME280;62974;49.460;10.892;2023-11-19T05:40:09;97407.78;;;6.86;100.00
73085;BME280;62974;49.460;10.892;2023-11-19T05:42:42;97410.00;;;6.82;100.00
73085;BME280;62974;49.460;10.892;2023-11-19T05:45:11;97409.16;;;6.96;100.00
73085;BME280;62974;49.460;10.892;2023-11-19T05:47:39;97395.88;;;7.03;100.00
73085;BME280;62974;49.460;10.892;2023-11-19T05:50:07;97397.25;;;6.99;100.00
73085;BME280;62974;49.460;10.892;2023-11-19T05:52:36;97397.25;;;6.99;100.00
73085;BME280;62974;49.460;10.892;2023-11-19T05:55:06;97382.19;;;7.13;100.00
73085;BME280;62974;49.460;10.892;2023-11-19T05:57:37;97381.53;;;7.04;100.00
73085;BME280;62974;49.460;10.892;2023-11-19T06:00:08;97378.06;;;7.10;100.00
73085;BME280;62974;49.460;10.892;2023-11-19T06:02:37;97380.44;;;7.20;100.00
73085;BME280;62974;49.460;10.892;2023-11-19T06:05:05;97380.44;;;7.20;100.00
73085;BME280;62974;49.460;10.892;2023-11-19T06:07:33;97395.91;;;7.24;100.00
73085;BME280;62974;49.460;10.892;2023-11-19T06:10:02;97398.31;;;7.19;100.00
73085;BME280;62974;49.460;10.892;2023-11-19T06:12:33;97359.81;;;7.28;100.00
73085;BME280;62974;49.460;10.892;2023-11-19T06:15:05;97369.84;;;7.26;100.00
73085;BME280;62974;49.460;10.892;2023-11-19T06:17:32;97362.97;;;7.38;100.00
73085;BME280;62974;49.460;10.892;2023-11-19T06:20:00;97364.25;;;7.42;100.00
73085;BME280;62974;49.460;10.892;2023-11-19T06:22:30;97355.97;;;7.37;100.00
73085;BME280;62974;49.460;10.892;2023-11-19T06:24:58;97366.47;;;7.39;100.00
73085;BME280;62974;49.460;10.892;2023-11-19T06:27:26;97358.75;;;7.50;100.00
73085;BME280;62974;49.460;10.892;2023-11-19T06:29:55;97362.66;;;7.48;100.00
73085;BME280;62974;49.460;10.892;2023-11-19T06:32:23;97358.13;;;7.48;100.00
73085;BME280;62974;49.460;10.892;2023-11-19T06:34:50;97354.41;;;7.71;100.00
73085;BME280;62974;49.460;10.892;2023-11-19T06:37:18;97347.13;;;7.86;100.00
73085;BME280;62974;49.460;10.892;2023-11-19T06:39:45;97359.72;;;7.64;100.00
73085;BME280;62974;49.460;10.892;2023-11-19T06:42:13;97348.34;;;7.55;100.00
73085;BME280;62974;49.460;10.892;2023-11-19T06:44:40;97346.66;;;7.76;100.00
73085;BME280;62974;49.460;10.892;2023-11-19T06:47:09;97347.81;;;7.67;100.00
73085;BME280;62974;49.460;10.892;2023-11-19T06:49:37;97353.19;;;8.01;100.00
73085;BME280;62974;49.460;10.892;2023-11-19T06:52:05;97353.91;;;7.88;100.00
73085;BME280;62974;49.460;10.892;2023-11-19T06:54:32;97345.19;;;7.73;100.00
73085;BME280;62974;49.460;10.892;2023-11-19T06:57:00;97351.84;;;7.84;100.00
73085;BME280;62974;49.460;10.892;2023-11-19T06:59:27;97338.84;;;8.09;100.00
73085;BME280;62974;49.460;10.892;2023-11-19T07:01:55;97330.31;;;8.26;100.00
73085;BME280;62974;49.460;10.892;2023-11-19T07:04:24;97342.34;;;8.09;100.00
73085;BME280;62974;49.460;10.892;2023-11-19T07:06:52;97335.56;;;8.07;100.00
73085;BME280;62974;49.460;10.892;2023-11-19T07:09:19;97319.78;;;8.18;100.00
73085;BME280;62974;49.460;10.892;2023-11-19T07:11:47;97336.47;;;7.92;100.00
73085;BME280;62974;49.460;10.892;2023-11-19T07:14:17;97323.59;;;8.02;100.00
73085;BME280;62974;49.460;10.892;2023-11-19T07:16:45;97311.09;;;8.10;100.00
73085;BME280;62974;49.460;10.892;2023-11-19T07:19:13;97322.13;;;8.28;100.00
73085;BME280;62974;49.460;10.892;2023-11-19T07:21:43;97335.31;;;8.01;100.00
73085;BME280;62974;49.460;10.892;2023-11-19T07:24:11;97327.28;;;8.29;100.00
73085;BME280;62974;49.460;10.892;2023-11-19T07:26:42;97330.66;;;8.17;100.00
73085;BME280;62974;49.460;10.892;2023-11-19T07:29:10;97334.28;;;8.30;100.00
73085;BME280;62974;49.460;10.892;2023-11-19T07:31:37;97335.44;;;8.56;100.00
73085;BME280;62974;49.460;10.892;2023-11-19T07:34:05;97345.88;;;8.44;100.00
73085;BME280;62974;49.460;10.892;2023-11-19T07:36:33;97335.94;;;8.31;100.00
73085;BME280;62974;49.460;10.892;2023-11-19T07:39:02;97334.72;;;8.34;100.00
73085;BME280;62974;49.460;10.892;2023-11-19T07:41:31;97338.47;;;8.39;100.00
73085;BME280;62974;49.460;10.892;2023-11-19T07:43:59;97340.72;;;8.36;100.00
73085;BME280;62974;49.460;10.892;2023-11-19T07:46:27;97343.44;;;8.49;100.00
73085;BME280;62974;49.460;10.892;2023-11-19T07:48:55;97337.63;;;8.39;100.00
73085;BME280;62974;49.460;10.892;2023-11-19T07:51:22;97343.84;;;8.46;100.00
73085;BME280;62974;49.460;10.892;2023-11-19T07:53:50;97341.59;;;8.56;100.00
73085;BME280;62974;49.460;10.892;2023-11-19T07:56:19;97340.09;;;8.40;100.00
73085;BME280;62974;49.460;10.892;2023-11-19T07:58:46;97339.56;;;8.52;100.00
73085;BME280;62974;49.460;10.892;2023-11-19T08:01:15;97331.13;;;8.61;100.00
73085;BME280;62974;49.460;10.892;2023-11-19T08:03:43;97327.88;;;8.72;100.00
73085;BME280;62974;49.460;10.892;2023-11-19T08:06:24;97331.97;;;8.62;100.00
73085;BME280;62974;49.460;10.892;2023-11-19T08:08:52;97334.22;;;8.65;100.00
73085;BME280;62974;49.460;10.892;2023-11-19T08:11:21;97334.47;;;8.70;100.00
73085;BME280;62974;49.460;10.892;2023-11-19T08:13:49;97341.00;;;8.61;100.00
73085;BME280;62974;49.460;10.892;2023-11-19T08:16:16;97333.28;;;8.79;100.00
73085;BME280;62974;49.460;10.892;2023-11-19T08:18:44;97330.53;;;8.66;100.00
73085;BME280;62974;49.460;10.892;2023-11-19T08:21:12;97331.78;;;8.70;100.00
73085;BME280;62974;49.460;10.892;2023-11-19T08:23:39;97333.09;;;8.87;100.00
73085;BME280;62974;49.460;10.892;2023-11-19T08:26:07;97318.50;;;9.09;100.00
73085;BME280;62974;49.460;10.892;2023-11-19T08:28:37;97319.94;;;8.99;100.00
73085;BME280;62974;49.460;10.892;2023-11-19T08:31:05;97318.75;;;9.21;100.00
73085;BME280;62974;49.460;10.892;2023-11-19T08:33:32;97319.19;;;9.31;100.00
73085;BME280;62974;49.460;10.892;2023-11-19T08:36:00;97315.03;;;9.15;100.00
73085;BME280;62974;49.460;10.892;2023-11-19T08:38:30;97316.06;;;9.14;100.00
73085;BME280;62974;49.460;10.892;2023-11-19T08:40:58;97319.75;;;9.13;100.00
73085;BME280;62974;49.460;10.892;2023-11-19T08:43:27;97318.56;;;9.49;100.00
73085;BME280;62974;49.460;10.892;2023-11-19T08:45:56;97322.91;;;9.76;100.00
73085;BME280;62974;49.460;10.892;2023-11-19T08:48:23;97314.84;;;9.36;100.00
73085;BME280;62974;49.460;10.892;2023-11-19T08:50:52;97303.31;;;9.69;100.00
73085;BME280;62974;49.460;10.892;2023-11-19T08:53:19;97320.00;;;9.44;100.00
73085;BME280;62974;49.460;10.892;2023-11-19T08:55:48;97316.94;;;9.61;100.00
73085;BME280;62974;49.460;10.892;2023-11-19T08:58:16;97302.69;;;9.80;100.00
73085;BME280;62974;49.460;10.892;2023-11-19T09:00:44;97300.41;;;9.97;100.00
73085;BME280;62974;49.460;10.892;2023-11-19T09:03:13;97293.59;;;9.81;100.00
73085;BME280;62974;49.460;10.892;2023-11-19T09:05:41;97293.00;;;9.66;100.00
73085;BME280;62974;49.460;10.892;2023-11-19T09:08:09;97286.59;;;9.73;100.00
73085;BME280;62974;49.460;10.892;2023-11-19T09:10:37;97295.81;;;10.23;100.00
73085;BME280;62974;49.460;10.892;2023-11-19T09:13:05;97299.38;;;9.98;100.00
73085;BME280;62974;49.460;10.892;2023-11-19T09:15:33;97300.00;;;9.86;100.00
73085;BME280;62974;49.460;10.892;2023-11-19T09:18:00;97304.09;;;9.96;100.00
73085;BME280;62974;49.460;10.892;2023-11-19T09:20:29;97303.66;;;10.25;100.00
73085;BME280;62974;49.460;10.892;2023-11-19T09:23:04;97312.59;;;9.99;100.00
73085;BME280;62974;49.460;10.892;2023-11-19T09:25:31;97316.25;;;10.24;100.00
73085;BME280;62974;49.460;10.892;2023-11-19T09:28:02;97313.56;;;10.38;100.00
73085;BME280;62974;49.460;10.892;2023-11-19T09:30:30;97317.06;;;10.31;100.00
73085;BME280;62974;49.460;10.892;2023-11-19T09:33:00;97327.56;;;10.40;100.00
73085;BME280;62974;49.460;10.892;2023-11-19T09:35:29;97333.19;;;10.05;100.00
73085;BME280;62974;49.460;10.892;2023-11-19T09:37:57;97349.09;;;10.07;100.00
73085;BME280;62974;49.460;10.892;2023-11-19T09:40:26;97368.06;;;10.31;100.00
73085;BME280;62974;49.460;10.892;2023-11-19T09:42:54;97370.75;;;9.99;100.00
73085;BME280;62974;49.460;10.892;2023-11-19T09:45:27;97363.75;;;10.11;100.00
73085;BME280;62974;49.460;10.892;2023-11-19T09:47:55;97357.53;;;10.36;100.00
73085;BME280;62974;49.460;10.892;2023-11-19T09:50:23;97360.84;;;10.12;100.00
73085;BME280;62974;49.460;10.892;2023-11-19T09:52:52;97349.28;;;10.05;100.00
73085;BME280;62974;49.460;10.892;2023-11-19T09:55:20;97348.88;;;10.02;100.00
73085;BME280;62974;49.460;10.892;2023-11-19T09:57:48;97347.66;;;10.11;100.00
73085;BME280;62974;49.460;10.892;2023-11-19T10:00:21;97342.88;;;10.19;100.00
73085;BME280;62974;49.460;10.892;2023-11-19T10:02:49;97345.81;;;10.18;100.00
73085;BME280;62974;49.460;10.892;2023-11-19T10:05:19;97350.94;;;10.19;100.00
73085;BME280;62974;49.460;10.892;2023-11-19T10:07:48;97344.13;;;10.23;100.00
73085;BME280;62974;49.460;10.892;2023-11-19T10:10:17;97339.97;;;10.27;100.00
73085;BME280;62974;49.460;10.892;2023-11-19T10:12:45;97339.38;;;10.39;100.00
73085;BME280;62974;49.460;10.892;2023-11-19T10:15:20;97330.88;;;10.42;100.00
73085;BME280;62974;49.460;10.892;2023-11-19T10:17:48;97337.94;;;10.29;100.00
73085;BME280;62974;49.460;10.892;2023-11-19T10:20:16;97323.28;;;10.25;100.00
73085;BME280;62974;49.460;10.892;2023-11-19T10:22:43;97334.00;;;10.32;100.00
73085;BME280;62974;49.460;10.892;2023-11-19T10:25:26;97333.38;;;10.23;100.00
73085;BME280;62974;49.460;10.892;2023-11-19T10:27:55;97321.22;;;10.21;100.00
73085;BME280;62974;49.460;10.892;2023-11-19T10:30:24;97323.72;;;10.16;100.00
73085;BME280;62974;49.460;10.892;2023-11-19T10:33:03;97304.69;;;10.24;100.00
73085;BME280;62974;49.460;10.892;2023-11-19T10:35:32;97298.53;;;10.10;100.00
73085;BME280;62974;49.460;10.892;2023-11-19T10:38:00;97284.69;;;10.20;100.00
73085;BME280;62974;49.460;10.892;2023-11-19T10:40:39;97292.94;;;10.25;100.00
73085;BME280;62974;49.460;10.892;2023-11-19T10:43:07;97285.38;;;10.60;100.00
73085;BME280;62974;49.460;10.892;2023-11-19T10:45:36;97278.69;;;10.75;100.00
73085;BME280;62974;49.460;10.892;2023-11-19T10:48:05;97288.41;;;10.76;100.00
73085;BME280;62974;49.460;10.892;2023-11-19T10:50:34;97271.44;;;10.82;100.00
73085;BME280;62974;49.460;10.892;2023-11-19T10:53:02;97280.97;;;10.78;100.00
73085;BME280;62974;49.460;10.892;2023-11-19T10:55:31;97314.56;;;10.94;100.00
73085;BME280;62974;49.460;10.892;2023-11-19T10:58:05;97325.31;;;10.94;100.00
73085;BME280;62974;49.460;10.892;2023-11-19T11:00:37;97331.91;;;10.92;100.00
73085;BME280;62974;49.460;10.892;2023-11-19T11:03:09;97343.97;;;10.82;100.00
73085;BME280;62974;49.460;10.892;2023-11-19T11:05:38;97345.19;;;10.80;100.00
73085;BME280;62974;49.460;10.892;2023-11-19T11:08:06;97339.06;;;10.66;100.00
73085;BME280;62974;49.460;10.892;2023-11-19T11:10:40;97349.81;;;10.60;100.00
73085;BME280;62974;49.460;10.892;2023-11-19T11:13:14;97344.41;;;10.73;100.00
73085;BME280;62974;49.460;10.892;2023-11-19T11:15:42;97342.78;;;10.65;100.00
73085;BME280;62974;49.460;10.892;2023-11-19T11:18:13;97352.03;;;10.76;100.00
73085;BME280;62974;49.460;10.892;2023-11-19T11:20:41;97360.78;;;11.09;100.00
73085;BME280;62974;49.460;10.892;2023-11-19T11:23:32;97369.91;;;10.95;100.00
73085;BME280;62974;49.460;10.892;2023-11-19T11:26:17;97364.69;;;11.07;100.00
73085;BME280;62974;49.460;10.892;2023-11-19T11:28:57;97364.78;;;10.87;100.00
73085;BME280;62974;49.460;10.892;2023-11-19T11:31:34;97355.41;;;11.03;100.00
73085;BME280;62974;49.460;10.892;2023-11-19T11:34:51;97359.50;;;11.18;100.00
73085;BME280;62974;49.460;10.892;2023-11-19T11:37:26;97367.69;;;11.61;100.00
73085;BME280;62974;49.460;10.892;2023-11-19T11:39:58;97369.63;;;11.48;100.00
73085;BME280;62974;49.460;10.892;2023-11-19T11:42:33;97384.75;;;11.49;100.00
73085;BME280;62974;49.460;10.892;2023-11-19T11:45:04;97373.09;;;11.61;100.00
73085;BME280;62974;49.460;10.892;2023-11-19T11:50:49;97375.91;;;11.42;100.00
73085;BME280;62974;49.460;10.892;2023-11-19T11:53:18;97365.22;;;11.60;100.00
73085;BME280;62974;49.460;10.892;2023-11-19T11:55:53;97359.59;;;11.37;100.00
73085;BME280;62974;49.460;10.892;2023-11-19T11:58:35;97349.13;;;11.22;100.00
73085;BME280;62974;49.460;10.892;2023-11-19T12:01:05;97357.59;;;11.19;100.00
73085;BME280;62974;49.460;10.892;2023-11-19T12:03:33;97347.69;;;11.19;100.00
73085;BME280;62974;49.460;10.892;2023-11-19T12:06:01;97349.13;;;11.22;100.00
73085;BME280;62974;49.460;10.892;2023-11-19T12:08:29;97357.78;;;11.30;100.00
73085;BME280;62974;49.460;10.892;2023-11-19T12:10:58;97364.03;;;11.18;100.00
73085;BME280;62974;49.460;10.892;2023-11-19T12:13:44;97352.59;;;11.29;100.00
73085;BME280;62974;49.460;10.892;2023-11-19T12:16:15;97342.31;;;11.19;100.00
73085;BME280;62974;49.460;10.892;2023-11-19T12:18:42;97341.53;;;11.12;100.00
73085;BME280;62974;49.460;10.892;2023-11-19T12:21:11;97346.78;;;11.32;100.00
73085;BME280;62974;49.460;10.892;2023-11-19T12:23:46;97348.75;;;11.50;100.00
73085;BME280;62974;49.460;10.892;2023-11-19T12:26:31;97345.31;;;11.74;100.00
73085;BME280;62974;49.460;10.892;2023-11-19T12:28:59;97347.16;;;11.67;100.00
73085;BME280;62974;49.460;10.892;2023-11-19T12:31:34;97344.41;;;11.49;100.00
73085;BME280;62974;49.460;10.892;2023-11-19T12:34:07;97354.06;;;11.88;100.00
73085;BME280;62974;49.460;10.892;2023-11-19T12:36:41;97365.66;;;11.88;100.00
73085;BME280;62974;49.460;10.892;2023-11-19T12:39:10;97357.78;;;11.55;100.00
73085;BME280;62974;49.460;10.892;2023-11-19T12:41:52;97351.00;;;11.53;100.00
73085;BME280;62974;49.460;10.892;2023-11-19T12:44:21;97351.66;;;11.48;100.00
73085;BME280;62974;49.460;10.892;2023-11-19T12:47:04;97354.97;;;11.82;100.00
73085;BME280;62974;49.460;10.892;2023-11-19T12:49:33;97356.88;;;11.68;100.00
73085;BME280;62974;49.460;10.892;2023-11-19T12:52:01;97365.09;;;11.80;100.00
73085;BME280;62974;49.460;10.892;2023-11-19T12:54:34;97351.50;;;11.68;100.00
73085;BME280;62974;49.460;10.892;2023-11-19T12:57:02;97348.25;;;11.91;100.00
73085;BME280;62974;49.460;10.892;2023-11-19T12:59:31;97358.53;;;11.69;100.00
73085;BME280;62974;49.460;10.892;2023-11-19T13:01:59;97352.75;;;11.72;100.00